sensor_id;sensor_type;location;lat;lon;timestamp;P1;durP1;ratioP1;P2;durP2;ratioP2
72123;SDS011;63818;37.134;-8.548;2023-06-22T00:02:05;9.5;;;5.6;;
72123;SDS011;63818;37.134;-8.548;2023-06-22T00:06:53;10.0;;;5.6;;
72123;SDS011;63818;37.134;-8.548;2023-06-22T00:11:41;9.6;;;5.4;;
72123;SDS011;63818;37.134;-8.548;2023-06-22T00:16:27;11.8;;;5.6;;
72123;SDS011;63818;37.134;-8.548;2023-06-22T00:21:13;12.8;;;5.6;;
72123;SDS011;63818;37.134;-8.548;2023-06-22T00:25:59;9.9;;;5.5;;
72123;SDS011;63818;37.134;-8.548;2023-06-22T00:30:45;8.3;;;5.4;;
72123;SDS011;63818;37.134;-8.548;2023-06-22T00:35:31;9.1;;;5.4;;
72123;SDS011;63818;37.134;-8.548;2023-06-22T00:40:17;10.3;;;5.5;;
72123;SDS011;63818;37.134;-8.548;2023-06-22T00:45:04;10.8;;;5.6;;
72123;SDS011;63818;37.134;-8.548;2023-06-22T00:49:50;9.7;;;5.4;;
72123;SDS011;63818;37.134;-8.548;2023-06-22T00:54:36;8.6;;;5.2;;
72123;SDS011;63818;37.134;-8.548;2023-06-22T00:59:22;8.9;;;5.5;;
72123;SDS011;63818;37.134;-8.548;2023-06-22T01:04:09;12.0;;;5.9;;
72123;SDS011;63818;37.134;-8.548;2023-06-22T01:08:57;13.6;;;6.0;;
72123;SDS011;63818;37.134;-8.548;2023-06-22T01:13:50;11.1;;;5.4;;
72123;SDS011;63818;37.134;-8.548;2023-06-22T01:18:43;9.8;;;5.3;;
72123;SDS011;63818;37.134;-8.548;2023-06-22T01:23:33;10.1;;;5.4;;
72123;SDS011;63818;37.134;-8.548;2023-06-22T01:28:47;9.6;;;5.4;;
72123;SDS011;63818;37.134;-8.548;2023-06-22T01:33:35;8.9;;;5.5;;
72123;SDS011;63818;37.134;-8.548;2023-06-22T01:38:24;9.5;;;5.5;;
72123;SDS011;63818;37.134;-8.548;2023-06-22T01:43:11;9.3;;;5.6;;
72123;SDS011;63818;37.134;-8.548;2023-06-22T01:47:57;9.8;;;5.5;;
72123;SDS011;63818;37.134;-8.548;2023-06-22T01:52:43;9.8;;;5.5;;
72123;SDS011;63818;37.134;-8.548;2023-06-22T01:57:29;8.7;;;5.5;;
72123;SDS011;63818;37.134;-8.548;2023-06-22T02:02:15;8.6;;;5.3;;
72123;SDS011;63818;37.134;-8.548;2023-06-22T02:07:05;8.4;;;5.3;;
72123;SDS011;63818;37.134;-8.548;2023-06-22T02:11:54;8.4;;;5.5;;
72123;SDS011;63818;37.134;-8.548;2023-06-22T02:16:42;8.6;;;5.5;;
72123;SDS011;63818;37.134;-8.548;2023-06-22T02:21:28;9.4;;;5.5;;
72123;SDS011;63818;37.134;-8.548;2023-06-22T02:26:17;9.5;;;5.4;;
72123;SDS011;63818;37.134;-8.548;2023-06-22T02:31:03;9.1;;;5.4;;
72123;SDS011;63818;37.134;-8.548;2023-06-22T02:35:49;9.1;;;5.5;;
72123;SDS011;63818;37.134;-8.548;2023-06-22T02:40:35;9.3;;;5.7;;
72123;SDS011;63818;37.134;-8.548;2023-06-22T02:45:23;8.8;;;5.5;;
72123;SDS011;63818;37.134;-8.548;2023-06-22T02:50:10;10.1;;;5.5;;
72123;SDS011;63818;37.134;-8.548;2023-06-22T02:54:55;11.3;;;5.7;;
72123;SDS011;63818;37.134;-8.548;2023-06-22T02:59:41;10.6;;;5.7;;
72123;SDS011;63818;37.134;-8.548;2023-06-22T03:04:27;9.8;;;5.7;;
72123;SDS011;63818;37.134;-8.548;2023-06-22T03:09:13;9.2;;;6.0;;
72123;SDS011;63818;37.134;-8.548;2023-06-22T03:13:59;9.4;;;6.0;;
72123;SDS011;63818;37.134;-8.548;2023-06-22T03:18:45;11.0;;;5.7;;
72123;SDS011;63818;37.134;-8.548;2023-06-22T03:23:31;13.1;;;5.8;;
72123;SDS011;63818;37.134;-8.548;2023-06-22T03:28:17;12.1;;;5.8;;
72123;SDS011;63818;37.134;-8.548;2023-06-22T03:33:03;9.5;;;5.5;;
72123;SDS011;63818;37.134;-8.548;2023-06-22T03:37:51;8.8;;;5.5;;
72123;SDS011;63818;37.134;-8.548;2023-06-22T03:42:38;9.7;;;5.9;;
72123;SDS011;63818;37.134;-8.548;2023-06-22T03:47:24;11.6;;;6.0;;
72123;SDS011;63818;37.134;-8.548;2023-06-22T03:52:11;12.3;;;5.8;;
72123;SDS011;63818;37.134;-8.548;2023-06-22T03:56:57;11.8;;;5.8;;
72123;SDS011;63818;37.134;-8.548;2023-06-22T04:01:43;10.3;;;5.7;;
72123;SDS011;63818;37.134;-8.548;2023-06-22T04:06:29;11.7;;;5.9;;
72123;SDS011;63818;37.134;-8.548;2023-06-22T04:11:15;12.9;;;6.1;;
72123;SDS011;63818;37.134;-8.548;2023-06-22T04:16:01;12.7;;;6.0;;
72123;SDS011;63818;37.134;-8.548;2023-06-22T04:20:47;14.6;;;6.2;;
72123;SDS011;63818;37.134;-8.548;2023-06-22T04:25:34;14.0;;;6.5;;
72123;SDS011;63818;37.134;-8.548;2023-06-22T04:30:20;13.3;;;6.4;;
72123;SDS011;63818;37.134;-8.548;2023-06-22T04:35:05;10.9;;;6.0;;
72123;SDS011;63818;37.134;-8.548;2023-06-22T04:39:52;9.5;;;5.8;;
72123;SDS011;63818;37.134;-8.548;2023-06-22T04:44:40;10.3;;;5.8;;
72123;SDS011;63818;37.134;-8.548;2023-06-22T04:49:28;10.2;;;6.0;;
72123;SDS011;63818;37.134;-8.548;2023-06-22T04:54:14;9.7;;;5.9;;
72123;SDS011;63818;37.134;-8.548;2023-06-22T04:59:03;9.5;;;5.9;;
72123;SDS011;63818;37.134;-8.548;2023-06-22T05:03:49;11.2;;;5.8;;
72123;SDS011;63818;37.134;-8.548;2023-06-22T05:08:35;10.9;;;5.6;;
72123;SDS011;63818;37.134;-8.548;2023-06-22T05:13:21;9.2;;;5.6;;
72123;SDS011;63818;37.134;-8.548;2023-06-22T05:18:07;10.8;;;5.8;;
72123;SDS011;63818;37.134;-8.548;2023-06-22T05:22:53;11.2;;;6.0;;
72123;SDS011;63818;37.134;-8.548;2023-06-22T05:27:39;9.5;;;5.8;;
72123;SDS011;63818;37.134;-8.548;2023-06-22T05:32:25;9.3;;;5.7;;
72123;SDS011;63818;37.134;-8.548;2023-06-22T05:37:11;9.4;;;5.8;;
72123;SDS011;63818;37.134;-8.548;2023-06-22T05:41:57;9.9;;;6.2;;
72123;SDS011;63818;37.134;-8.548;2023-06-22T05:46:44;10.3;;;6.1;;
72123;SDS011;63818;37.134;-8.548;2023-06-22T05:51:31;10.5;;;5.8;;
72123;SDS011;63818;37.134;-8.548;2023-06-22T05:56:18;10.0;;;6.3;;
72123;SDS011;63818;37.134;-8.548;2023-06-22T06:01:04;10.4;;;6.5;;
72123;SDS011;63818;37.134;-8.548;2023-06-22T06:05:53;11.0;;;6.2;;
72123;SDS011;63818;37.134;-8.548;2023-06-22T06:10:41;10.3;;;6.2;;
72123;SDS011;63818;37.134;-8.548;2023-06-22T06:15:29;10.2;;;6.1;;
72123;SDS011;63818;37.134;-8.548;2023-06-22T06:20:21;9.6;;;6.1;;
72123;SDS011;63818;37.134;-8.548;2023-06-22T06:25:10;10.2;;;6.2;;
72123;SDS011;63818;37.134;-8.548;2023-06-22T06:29:56;10.1;;;5.9;;
72123;SDS011;63818;37.134;-8.548;2023-06-22T06:34:44;10.7;;;6.3;;
72123;SDS011;63818;37.134;-8.548;2023-06-22T06:39:32;11.4;;;6.6;;
72123;SDS011;63818;37.134;-8.548;2023-06-22T06:44:20;12.3;;;6.2;;
72123;SDS011;63818;37.134;-8.548;2023-06-22T06:49:08;16.5;;;6.2;;
72123;SDS011;63818;37.134;-8.548;2023-06-22T06:53:54;14.3;;;6.1;;
72123;SDS011;63818;37.134;-8.548;2023-06-22T06:58:42;9.7;;;6.1;;
72123;SDS011;63818;37.134;-8.548;2023-06-22T07:03:34;10.5;;;6.3;;
72123;SDS011;63818;37.134;-8.548;2023-06-22T07:08:20;10.7;;;6.1;;
72123;SDS011;63818;37.134;-8.548;2023-06-22T07:13:06;11.2;;;6.1;;
72123;SDS011;63818;37.134;-8.548;2023-06-22T07:17:54;13.1;;;6.0;;
72123;SDS011;63818;37.134;-8.548;2023-06-22T07:22:41;13.0;;;5.9;;
72123;SDS011;63818;37.134;-8.548;2023-06-22T07:27:32;15.3;;;6.3;;
72123;SDS011;63818;37.134;-8.548;2023-06-22T07:32:18;14.7;;;6.3;;
72123;SDS011;63818;37.134;-8.548;2023-06-22T07:37:05;11.4;;;6.0;;
72123;SDS011;63818;37.134;-8.548;2023-06-22T07:41:55;11.3;;;6.0;;
72123;SDS011;63818;37.134;-8.548;2023-06-22T07:46:41;9.9;;;6.0;;
72123;SDS011;63818;37.134;-8.548;2023-06-22T07:51:27;9.5;;;5.9;;
72123;SDS011;63818;37.134;-8.548;2023-06-22T07:56:14;9.8;;;5.5;;
72123;SDS011;63818;37.134;-8.548;2023-06-22T08:01:02;10.5;;;5.7;;
72123;SDS011;63818;37.134;-8.548;2023-06-22T08:05:50;10.9;;;6.2;;
72123;SDS011;63818;37.134;-8.548;2023-06-22T08:10:41;12.5;;;6.0;;
72123;SDS011;63818;37.134;-8.548;2023-06-22T08:15:27;12.2;;;5.5;;
72123;SDS011;63818;37.134;-8.548;2023-06-22T08:20:15;9.7;;;5.8;;
72123;SDS011;63818;37.134;-8.548;2023-06-22T08:25:01;10.0;;;6.0;;
72123;SDS011;63818;37.134;-8.548;2023-06-22T08:29:48;10.7;;;5.9;;
72123;SDS011;63818;37.134;-8.548;2023-06-22T08:34:34;9.6;;;5.7;;
72123;SDS011;63818;37.134;-8.548;2023-06-22T08:39:20;9.4;;;5.9;;
72123;SDS011;63818;37.134;-8.548;2023-06-22T08:44:06;12.1;;;6.3;;
72123;SDS011;63818;37.134;-8.548;2023-06-22T08:48:52;11.8;;;5.8;;
72123;SDS011;63818;37.134;-8.548;2023-06-22T08:53:38;9.2;;;5.5;;
72123;SDS011;63818;37.134;-8.548;2023-06-22T08:58:24;8.5;;;5.5;;
72123;SDS011;63818;37.134;-8.548;2023-06-22T09:03:11;9.6;;;5.5;;
72123;SDS011;63818;37.134;-8.548;2023-06-22T09:07:59;12.2;;;5.6;;
72123;SDS011;63818;37.134;-8.548;2023-06-22T09:12:45;11.3;;;5.5;;
72123;SDS011;63818;37.134;-8.548;2023-06-22T09:17:33;10.2;;;6.1;;
72123;SDS011;63818;37.134;-8.548;2023-06-22T09:22:22;10.2;;;5.9;;
72123;SDS011;63818;37.134;-8.548;2023-06-22T09:27:15;11.8;;;5.8;;
72123;SDS011;63818;37.134;-8.548;2023-06-22T09:32:01;12.0;;;6.0;;
72123;SDS011;63818;37.134;-8.548;2023-06-22T09:36:47;9.3;;;5.7;;
72123;SDS011;63818;37.134;-8.548;2023-06-22T09:41:33;9.3;;;5.8;;
72123;SDS011;63818;37.134;-8.548;2023-06-22T09:46:19;9.2;;;5.6;;
72123;SDS011;63818;37.134;-8.548;2023-06-22T09:51:05;11.9;;;5.6;;
72123;SDS011;63818;37.134;-8.548;2023-06-22T09:55:51;11.5;;;5.7;;
72123;SDS011;63818;37.134;-8.548;2023-06-22T10:00:39;10.1;;;5.2;;
72123;SDS011;63818;37.134;-8.548;2023-06-22T10:05:25;11.3;;;5.2;;
72123;SDS011;63818;37.134;-8.548;2023-06-22T10:10:11;9.3;;;5.3;;
72123;SDS011;63818;37.134;-8.548;2023-06-22T10:14:58;8.8;;;5.1;;
72123;SDS011;63818;37.134;-8.548;2023-06-22T10:19:45;8.6;;;5.0;;
72123;SDS011;63818;37.134;-8.548;2023-06-22T10:24:33;7.8;;;5.1;;
72123;SDS011;63818;37.134;-8.548;2023-06-22T10:29:19;8.0;;;5.2;;
72123;SDS011;63818;37.134;-8.548;2023-06-22T10:34:07;8.7;;;5.1;;
72123;SDS011;63818;37.134;-8.548;2023-06-22T10:38:53;9.4;;;5.3;;
72123;SDS011;63818;37.134;-8.548;2023-06-22T10:43:39;8.5;;;5.4;;
72123;SDS011;63818;37.134;-8.548;2023-06-22T10:48:27;8.4;;;5.3;;
72123;SDS011;63818;37.134;-8.548;2023-06-22T10:53:13;10.6;;;5.2;;
72123;SDS011;63818;37.134;-8.548;2023-06-22T10:57:59;11.5;;;5.2;;
72123;SDS011;63818;37.134;-8.548;2023-06-22T11:02:47;9.9;;;5.5;;
72123;SDS011;63818;37.134;-8.548;2023-06-22T11:07:33;10.9;;;5.7;;
72123;SDS011;63818;37.134;-8.548;2023-06-22T11:12:19;11.1;;;5.7;;
72123;SDS011;63818;37.134;-8.548;2023-06-22T11:17:07;9.1;;;5.5;;
72123;SDS011;63818;37.134;-8.548;2023-06-22T11:21:56;8.6;;;5.3;;
72123;SDS011;63818;37.134;-8.548;2023-06-22T11:26:42;9.2;;;5.4;;
72123;SDS011;63818;37.134;-8.548;2023-06-22T11:31:32;10.1;;;5.7;;
72123;SDS011;63818;37.134;-8.548;2023-06-22T11:36:18;10.6;;;6.0;;
72123;SDS011;63818;37.134;-8.548;2023-06-22T11:41:05;10.0;;;5.8;;
72123;SDS011;63818;37.134;-8.548;2023-06-22T11:45:51;9.3;;;5.6;;
72123;SDS011;63818;37.134;-8.548;2023-06-22T11:50:39;9.5;;;5.7;;
72123;SDS011;63818;37.134;-8.548;2023-06-22T11:55:25;9.7;;;5.6;;
72123;SDS011;63818;37.134;-8.548;2023-06-22T12:00:11;10.9;;;6.0;;
72123;SDS011;63818;37.134;-8.548;2023-06-22T12:05:00;10.9;;;6.3;;
72123;SDS011;63818;37.134;-8.548;2023-06-22T12:09:46;10.3;;;6.1;;
72123;SDS011;63818;37.134;-8.548;2023-06-22T12:14:33;10.2;;;5.9;;
72123;SDS011;63818;37.134;-8.548;2023-06-22T12:19:19;9.6;;;5.7;;
72123;SDS011;63818;37.134;-8.548;2023-06-22T12:24:07;10.5;;;6.3;;
72123;SDS011;63818;37.134;-8.548;2023-06-22T12:28:56;12.2;;;6.6;;
72123;SDS011;63818;37.134;-8.548;2023-06-22T12:33:43;15.7;;;7.1;;
72123;SDS011;63818;37.134;-8.548;2023-06-22T12:38:34;17.0;;;7.7;;
72123;SDS011;63818;37.134;-8.548;2023-06-22T12:43:22;13.9;;;7.3;;
72123;SDS011;63818;37.134;-8.548;2023-06-22T12:48:07;12.2;;;7.0;;
72123;SDS011;63818;37.134;-8.548;2023-06-22T12:52:54;11.6;;;6.9;;
72123;SDS011;63818;37.134;-8.548;2023-06-22T12:57:46;11.6;;;7.1;;
72123;SDS011;63818;37.134;-8.548;2023-06-22T13:02:33;12.3;;;7.3;;
72123;SDS011;63818;37.134;-8.548;2023-06-22T13:07:21;13.0;;;7.0;;
72123;SDS011;63818;37.134;-8.548;2023-06-22T13:12:10;13.4;;;6.8;;
72123;SDS011;63818;37.134;-8.548;2023-06-22T13:16:56;12.8;;;6.6;;
72123;SDS011;63818;37.134;-8.548;2023-06-22T13:21:45;14.3;;;6.7;;
72123;SDS011;63818;37.134;-8.548;2023-06-22T13:26:31;15.3;;;6.9;;
72123;SDS011;63818;37.134;-8.548;2023-06-22T13:31:20;11.5;;;6.6;;
72123;SDS011;63818;37.134;-8.548;2023-06-22T13:36:08;9.6;;;6.5;;
72123;SDS011;63818;37.134;-8.548;2023-06-22T13:40:56;13.1;;;7.0;;
72123;SDS011;63818;37.134;-8.548;2023-06-22T13:45:42;17.9;;;7.2;;
72123;SDS011;63818;37.134;-8.548;2023-06-22T13:50:28;17.4;;;7.1;;
72123;SDS011;63818;37.134;-8.548;2023-06-22T13:55:17;15.1;;;7.0;;
72123;SDS011;63818;37.134;-8.548;2023-06-22T14:00:03;12.9;;;6.6;;
72123;SDS011;63818;37.134;-8.548;2023-06-22T14:04:51;11.8;;;6.3;;
72123;SDS011;63818;37.134;-8.548;2023-06-22T14:09:37;12.7;;;6.3;;
72123;SDS011;63818;37.134;-8.548;2023-06-22T14:14:23;11.6;;;6.4;;
72123;SDS011;63818;37.134;-8.548;2023-06-22T14:19:09;10.7;;;6.5;;
72123;SDS011;63818;37.134;-8.548;2023-06-22T14:23:55;11.4;;;6.7;;
72123;SDS011;63818;37.134;-8.548;2023-06-22T14:28:41;11.0;;;6.6;;
72123;SDS011;63818;37.134;-8.548;2023-06-22T14:33:31;11.1;;;6.3;;
72123;SDS011;63818;37.134;-8.548;2023-06-22T14:38:18;14.0;;;6.4;;
72123;SDS011;63818;37.134;-8.548;2023-06-22T14:43:04;13.5;;;6.4;;
72123;SDS011;63818;37.134;-8.548;2023-06-22T14:47:50;11.6;;;6.4;;
72123;SDS011;63818;37.134;-8.548;2023-06-22T14:52:36;11.0;;;6.2;;
72123;SDS011;63818;37.134;-8.548;2023-06-22T14:57:22;12.9;;;6.1;;
72123;SDS011;63818;37.134;-8.548;2023-06-22T15:02:08;12.9;;;6.3;;
72123;SDS011;63818;37.134;-8.548;2023-06-22T15:06:54;12.0;;;6.0;;
72123;SDS011;63818;37.134;-8.548;2023-06-22T15:11:39;13.7;;;6.0;;
72123;SDS011;63818;37.134;-8.548;2023-06-22T15:16:25;13.7;;;6.1;;
72123;SDS011;63818;37.134;-8.548;2023-06-22T15:21:11;12.3;;;6.1;;
72123;SDS011;63818;37.134;-8.548;2023-06-22T15:25:58;12.9;;;6.1;;
72123;SDS011;63818;37.134;-8.548;2023-06-22T15:30:45;14.7;;;6.2;;
72123;SDS011;63818;37.134;-8.548;2023-06-22T15:35:33;13.2;;;6.3;;
72123;SDS011;63818;37.134;-8.548;2023-06-22T15:40:19;10.7;;;6.2;;
72123;SDS011;63818;37.134;-8.548;2023-06-22T15:45:05;11.9;;;6.4;;
72123;SDS011;63818;37.134;-8.548;2023-06-22T15:49:51;13.0;;;6.3;;
72123;SDS011;63818;37.134;-8.548;2023-06-22T15:54:37;11.8;;;6.3;;
72123;SDS011;63818;37.134;-8.548;2023-06-22T15:59:23;10.8;;;6.4;;
72123;SDS011;63818;37.134;-8.548;2023-06-22T16:04:09;11.2;;;6.3;;
72123;SDS011;63818;37.134;-8.548;2023-06-22T16:08:56;16.2;;;6.7;;
72123;SDS011;63818;37.134;-8.548;2023-06-22T16:13:41;15.6;;;6.5;;
72123;SDS011;63818;37.134;-8.548;2023-06-22T16:18:28;11.9;;;6.3;;
72123;SDS011;63818;37.134;-8.548;2023-06-22T16:23:14;10.3;;;6.2;;
72123;SDS011;63818;37.134;-8.548;2023-06-22T16:28:00;12.0;;;6.2;;
72123;SDS011;63818;37.134;-8.548;2023-06-22T16:32:53;12.3;;;6.3;;
72123;SDS011;63818;37.134;-8.548;2023-06-22T16:37:39;11.6;;;6.4;;
72123;SDS011;63818;37.134;-8.548;2023-06-22T16:42:25;12.1;;;6.7;;
72123;SDS011;63818;37.134;-8.548;2023-06-22T16:47:11;12.8;;;6.8;;
72123;SDS011;63818;37.134;-8.548;2023-06-22T16:51:57;12.9;;;6.5;;
72123;SDS011;63818;37.134;-8.548;2023-06-22T16:56:43;13.8;;;6.2;;
72123;SDS011;63818;37.134;-8.548;2023-06-22T17:01:31;15.2;;;6.1;;
72123;SDS011;63818;37.134;-8.548;2023-06-22T17:06:19;14.4;;;6.6;;
72123;SDS011;63818;37.134;-8.548;2023-06-22T17:11:05;18.0;;;7.3;;
72123;SDS011;63818;37.134;-8.548;2023-06-22T17:15:54;17.2;;;6.8;;
72123;SDS011;63818;37.134;-8.548;2023-06-22T17:20:40;13.1;;;6.2;;
72123;SDS011;63818;37.134;-8.548;2023-06-22T17:25:29;15.4;;;6.3;;
72123;SDS011;63818;37.134;-8.548;2023-06-22T17:30:18;14.2;;;6.4;;
72123;SDS011;63818;37.134;-8.548;2023-06-22T17:35:04;13.8;;;6.5;;
72123;SDS011;63818;37.134;-8.548;2023-06-22T17:39:53;17.3;;;6.4;;
72123;SDS011;63818;37.134;-8.548;2023-06-22T17:44:39;17.9;;;6.3;;
72123;SDS011;63818;37.134;-8.548;2023-06-22T17:49:27;14.0;;;6.4;;
72123;SDS011;63818;37.134;-8.548;2023-06-22T17:54:14;13.1;;;6.5;;
72123;SDS011;63818;37.134;-8.548;2023-06-22T17:59:00;13.3;;;6.4;;
72123;SDS011;63818;37.134;-8.548;2023-06-22T18:03:46;11.7;;;6.1;;
72123;SDS011;63818;37.134;-8.548;2023-06-22T18:08:33;11.5;;;6.0;;
72123;SDS011;63818;37.134;-8.548;2023-06-22T18:13:22;11.1;;;5.9;;
72123;SDS011;63818;37.134;-8.548;2023-06-22T18:18:08;11.4;;;6.1;;
72123;SDS011;63818;37.134;-8.548;2023-06-22T18:22:55;13.6;;;6.4;;
72123;SDS011;63818;37.134;-8.548;2023-06-22T18:27:43;15.7;;;6.7;;
72123;SDS011;63818;37.134;-8.548;2023-06-22T18:32:32;13.5;;;7.1;;
72123;SDS011;63818;37.134;-8.548;2023-06-22T18:37:18;13.5;;;6.8;;
72123;SDS011;63818;37.134;-8.548;2023-06-22T18:42:05;14.1;;;6.4;;
72123;SDS011;63818;37.134;-8.548;2023-06-22T18:46:56;12.7;;;6.3;;
72123;SDS011;63818;37.134;-8.548;2023-06-22T18:51:53;11.8;;;6.2;;
72123;SDS011;63818;37.134;-8.548;2023-06-22T18:56:50;11.8;;;6.3;;
72123;SDS011;63818;37.134;-8.548;2023-06-22T19:01:37;11.8;;;6.1;;
72123;SDS011;63818;37.134;-8.548;2023-06-22T19:11:42;12.4;;;6.3;;
72123;SDS011;63818;37.134;-8.548;2023-06-22T19:16:30;12.3;;;6.4;;
72123;SDS011;63818;37.134;-8.548;2023-06-22T19:21:21;11.3;;;6.3;;
72123;SDS011;63818;37.134;-8.548;2023-06-22T19:26:09;11.6;;;6.3;;
72123;SDS011;63818;37.134;-8.548;2023-06-22T19:30:57;14.4;;;6.1;;
72123;SDS011;63818;37.134;-8.548;2023-06-22T19:35:44;16.9;;;6.2;;
72123;SDS011;63818;37.134;-8.548;2023-06-22T19:40:34;13.8;;;6.3;;
72123;SDS011;63818;37.134;-8.548;2023-06-22T19:45:24;11.4;;;6.3;;
72123;SDS011;63818;37.134;-8.548;2023-06-22T19:50:13;11.5;;;6.2;;
72123;SDS011;63818;37.134;-8.548;2023-06-22T19:54:59;12.3;;;6.5;;
72123;SDS011;63818;37.134;-8.548;2023-06-22T19:59:45;14.2;;;6.6;;
72123;SDS011;63818;37.134;-8.548;2023-06-22T20:04:32;13.8;;;6.4;;
72123;SDS011;63818;37.134;-8.548;2023-06-22T20:09:21;12.7;;;6.3;;
72123;SDS011;63818;37.134;-8.548;2023-06-22T20:14:07;13.7;;;6.3;;
72123;SDS011;63818;37.134;-8.548;2023-06-22T20:19:06;14.4;;;6.6;;
72123;SDS011;63818;37.134;-8.548;2023-06-22T20:23:53;13.9;;;6.6;;
72123;SDS011;63818;37.134;-8.548;2023-06-22T20:28:39;13.6;;;6.7;;
72123;SDS011;63818;37.134;-8.548;2023-06-22T20:33:25;14.2;;;6.6;;
72123;SDS011;63818;37.134;-8.548;2023-06-22T20:38:12;15.5;;;6.1;;
72123;SDS011;63818;37.134;-8.548;2023-06-22T20:42:58;15.5;;;6.2;;
72123;SDS011;63818;37.134;-8.548;2023-06-22T20:47:45;15.6;;;6.2;;
72123;SDS011;63818;37.134;-8.548;2023-06-22T20:52:31;12.7;;;6.1;;
72123;SDS011;63818;37.134;-8.548;2023-06-22T20:57:18;11.9;;;6.3;;
72123;SDS011;63818;37.134;-8.548;2023-06-22T21:02:04;15.2;;;6.7;;
72123;SDS011;63818;37.134;-8.548;2023-06-22T21:06:50;13.8;;;6.6;;
72123;SDS011;63818;37.134;-8.548;2023-06-22T21:11:36;11.8;;;6.5;;
72123;SDS011;63818;37.134;-8.548;2023-06-22T21:16:22;12.0;;;6.5;;
72123;SDS011;63818;37.134;-8.548;2023-06-22T21:21:08;13.4;;;6.6;;
72123;SDS011;63818;37.134;-8.548;2023-06-22T21:25:54;14.7;;;6.6;;
72123;SDS011;63818;37.134;-8.548;2023-06-22T21:30:40;14.1;;;6.5;;
72123;SDS011;63818;37.134;-8.548;2023-06-22T21:35:26;12.1;;;6.5;;
72123;SDS011;63818;37.134;-8.548;2023-06-22T21:40:13;12.9;;;6.7;;
72123;SDS011;63818;37.134;-8.548;2023-06-22T21:44:59;14.4;;;6.8;;
72123;SDS011;63818;37.134;-8.548;2023-06-22T21:49:45;12.9;;;6.5;;
72123;SDS011;63818;37.134;-8.548;2023-06-22T21:54:30;14.1;;;6.7;;
72123;SDS011;63818;37.134;-8.548;2023-06-22T21:59:16;16.9;;;7.2;;
72123;SDS011;63818;37.134;-8.548;2023-06-22T22:04:02;17.1;;;7.2;;
72123;SDS011;63818;37.134;-8.548;2023-06-22T22:08:48;16.3;;;6.9;;
72123;SDS011;63818;37.134;-8.548;2023-06-22T22:13:35;13.4;;;6.7;;
72123;SDS011;63818;37.134;-8.548;2023-06-22T22:18:20;11.2;;;6.6;;
72123;SDS011;63818;37.134;-8.548;2023-06-22T22:23:06;11.0;;;6.8;;
72123;SDS011;63818;37.134;-8.548;2023-06-22T22:27:55;11.1;;;7.0;;
72123;SDS011;63818;37.134;-8.548;2023-06-22T22:32:41;13.5;;;6.7;;
72123;SDS011;63818;37.134;-8.548;2023-06-22T22:37:28;15.8;;;6.8;;
72123;SDS011;63818;37.134;-8.548;2023-06-22T22:42:15;14.7;;;6.9;;
72123;SDS011;63818;37.134;-8.548;2023-06-22T22:47:01;13.2;;;6.6;;
72123;SDS011;63818;37.134;-8.548;2023-06-22T22:51:46;15.5;;;7.0;;
72123;SDS011;63818;37.134;-8.548;2023-06-22T22:56:33;15.9;;;7.2;;
72123;SDS011;63818;37.134;-8.548;2023-06-22T23:01:19;15.1;;;7.5;;
72123;SDS011;63818;37.134;-8.548;2023-06-22T23:06:06;12.8;;;7.4;;
72123;SDS011;63818;37.134;-8.548;2023-06-22T23:10:51;12.2;;;7.3;;
72123;SDS011;63818;37.134;-8.548;2023-06-22T23:15:37;12.8;;;7.4;;
72123;SDS011;63818;37.134;-8.548;2023-06-22T23:20:23;14.0;;;7.7;;
72123;SDS011;63818;37.134;-8.548;2023-06-22T23:25:10;15.1;;;8.2;;
72123;SDS011;63818;37.134;-8.548;2023-06-22T23:29:56;15.6;;;7.8;;
72123;SDS011;63818;37.134;-8.548;2023-06-22T23:34:42;14.8;;;7.2;;
72123;SDS011;63818;37.134;-8.548;2023-06-22T23:39:28;13.1;;;7.3;;
72123;SDS011;63818;37.134;-8.548;2023-06-22T23:44:14;14.9;;;7.4;;
72123;SDS011;63818;37.134;-8.548;2023-06-22T23:49:02;13.7;;;7.3;;
72123;SDS011;63818;37.134;-8.548;2023-06-22T23:53:48;11.6;;;7.1;;
72123;SDS011;63818;37.134;-8.548;2023-06-22T23:58:34;12.3;;;7.1;;
